Time;durP1;ratioP1;P1;durP2;ratioP2;P2;SDS_P1;SDS_P2;PMS_P1;PMS_P2;Temp;Humidity;BMP_temperature;BMP_pressure;BME280_temperature;BME280_humidity;BME280_pressure;Samples;Min_cycle;Max_cycle;Signal;HPM_P1;HPM_P2
2024/01/05 00:01:56;;;;;;;6.60;3.67;;;7.90;99.90;;;;;;5032790;28;20218;-59
2024/01/05 00:04:23;;;;;;;8.63;3.10;;;7.90;99.90;;;;;;5033023;28;20563;-56
2024/01/05 00:06:50;;;;;;;9.27;3.07;;;7.90;99.90;;;;;;5033227;28;20206;-55
2024/01/05 00:09:17;;;;;;;7.43;2.60;;;7.90;99.90;;;;;;5032682;28;20210;-56
2024/01/05 00:11:44;;;;;;;6.93;2.97;;;7.90;99.90;;;;;;5032346;28;20226;-57
2024/01/05 00:14:12;;;;;;;4.93;2.60;;;8.00;99.90;;;;;;5032331;28;20248;-58
2024/01/05 00:16:39;;;;;;;6.70;2.57;;;7.90;99.90;;;;;;5032507;28;20239;-57
2024/01/05 00:19:05;;;;;;;7.57;2.33;;;7.90;99.90;;;;;;5032484;28;20199;-57
2024/01/05 00:21:32;;;;;;;11.87;2.70;;;8.00;99.90;;;;;;5032385;28;20613;-57
2024/01/05 00:23:59;;;;;;;6.10;2.10;;;7.90;99.90;;;;;;5032061;28;20632;-57
2024/01/05 00:26:26;;;;;;;5.67;2.47;;;7.90;99.90;;;;;;5032097;28;20264;-56
2024/01/05 00:28:53;;;;;;;6.73;2.63;;;7.90;99.90;;;;;;5032444;28;20285;-56
2024/01/05 00:31:21;;;;;;;6.57;2.70;;;7.80;99.90;;;;;;5032022;28;20209;-57
2024/01/05 00:33:48;;;;;;;5.87;2.67;;;7.80;99.90;;;;;;5031810;28;20719;-58
2024/01/05 00:36:14;;;;;;;8.50;3.23;;;7.80;99.90;;;;;;5032081;28;20233;-58
2024/01/05 00:38:46;;;;;;;7.60;3.13;;;7.80;99.90;;;;;;5032268;28;20210;-59
2024/01/05 00:41:13;;;;;;;6.20;2.40;;;7.80;99.90;;;;;;5031771;28;20272;-58
2024/01/05 00:43:40;;;;;;;7.97;2.47;;;7.70;99.90;;;;;;5031777;28;20199;-57
2024/01/05 00:46:06;;;;;;;6.13;2.17;;;7.70;99.90;;;;;;5031897;28;20690;-57
2024/01/05 00:48:35;;;;;;;7.20;2.73;;;7.60;99.90;;;;;;5031746;28;20198;-58
2024/01/05 00:51:02;;;;;;;5.33;2.40;;;7.50;99.90;;;;;;5032062;28;20682;-57
2024/01/05 00:53:28;;;;;;;5.57;2.33;;;7.50;99.90;;;;;;5031315;28;20707;-57
2024/01/05 00:55:55;;;;;;;6.83;2.30;;;7.60;99.90;;;;;;5031794;28;20198;-56
2024/01/05 00:58:21;;;;;;;5.00;2.20;;;7.60;99.90;;;;;;5031160;28;20207;-57
2024/01/05 01:00:48;;;;;;;6.03;1.90;;;7.60;99.90;;;;;;5031903;28;20202;-57
2024/01/05 01:03:15;;;;;;;5.73;1.70;;;7.50;99.90;;;;;;5031282;28;20222;-56
2024/01/05 01:05:44;;;;;;;5.43;1.80;;;7.50;99.90;;;;;;5031720;28;20672;-59
2024/01/05 01:08:12;;;;;;;8.63;2.10;;;7.40;99.90;;;;;;5032097;28;20587;-57
2024/01/05 01:10:39;;;;;;;7.43;2.20;;;7.40;99.90;;;;;;5023655;28;20217;-57
2024/01/05 01:13:06;;;;;;;8.27;2.30;;;7.50;99.90;;;;;;5031346;28;20230;-57
2024/01/05 01:15:32;;;;;;;7.13;2.30;;;7.60;99.90;;;;;;5031437;28;20252;-56
2024/01/05 01:17:59;;;;;;;6.83;2.37;;;7.60;99.90;;;;;;5031486;28;20233;-56
2024/01/05 01:20:26;;;;;;;6.83;2.00;;;7.60;99.90;;;;;;5031485;28;20214;-58
2024/01/05 01:22:54;;;;;;;5.97;2.20;;;7.60;99.90;;;;;;5031142;28;20226;-57
2024/01/05 01:25:21;;;;;;;5.30;1.90;;;7.50;99.90;;;;;;5031129;28;20202;-57
2024/01/05 01:27:47;;;;;;;10.53;2.30;;;7.50;99.90;;;;;;5031494;28;20209;-56
2024/01/05 01:30:14;;;;;;;6.77;2.10;;;7.60;99.90;;;;;;5031364;28;20275;-58
2024/01/05 01:32:42;;;;;;;5.53;1.93;;;7.70;99.90;;;;;;5030955;28;20622;-56
2024/01/05 01:35:09;;;;;;;5.93;2.57;;;7.70;99.90;;;;;;5031222;28;20289;-57
2024/01/05 01:37:35;;;;;;;5.53;1.73;;;7.80;99.90;;;;;;5031207;28;20210;-56
2024/01/05 01:40:04;;;;;;;3.90;1.60;;;7.80;99.90;;;;;;5031154;28;20637;-58
2024/01/05 01:42:32;;;;;;;7.00;1.73;;;7.90;99.90;;;;;;5030905;28;20254;-56
2024/01/05 01:44:58;;;;;;;5.13;1.97;;;7.90;99.90;;;;;;5031341;28;20293;-58
2024/01/05 01:47:25;;;;;;;6.80;1.90;;;7.90;99.90;;;;;;5031197;28;20218;-56
2024/01/05 01:49:52;;;;;;;6.83;2.40;;;8.00;99.90;;;;;;5031087;28;20289;-56
2024/01/05 01:52:19;;;;;;;5.33;2.43;;;8.00;99.90;;;;;;5030600;28;20226;-57
2024/01/05 01:54:46;;;;;;;6.07;1.67;;;8.00;99.90;;;;;;5031254;28;20206;-56
2024/01/05 01:57:17;;;;;;;5.83;1.70;;;8.00;99.90;;;;;;5031307;28;20240;-56
2024/01/05 01:59:44;;;;;;;7.43;2.10;;;8.10;99.90;;;;;;5023774;28;20225;-56
2024/01/05 02:02:12;;;;;;;6.13;2.00;;;8.00;99.90;;;;;;5030823;28;20588;-57
2024/01/05 02:04:39;;;;;;;6.90;1.80;;;8.00;99.90;;;;;;5023007;28;20285;-55
2024/01/05 02:07:07;;;;;;;7.00;1.73;;;8.10;99.90;;;;;;5030926;28;20252;-56
2024/01/05 02:09:34;;;;;;;4.47;1.70;;;8.00;99.90;;;;;;5031151;28;20252;-56
2024/01/05 02:12:01;;;;;;;5.17;1.70;;;8.00;99.90;;;;;;5034316;28;20276;-58
2024/01/05 02:14:29;;;;;;;4.90;1.73;;;8.00;99.90;;;;;;5034685;28;20222;-56
2024/01/05 02:16:56;;;;;;;4.80;2.53;;;8.10;99.90;;;;;;5034835;28;20706;-57
2024/01/05 02:19:23;;;;;;;5.43;1.70;;;8.10;99.90;;;;;;5034867;28;20206;-59
2024/01/05 02:32:08;;;;;;;6.20;1.83;;;8.10;99.90;;;;;;5028546;28;20225;-57
2024/01/05 02:34:35;;;;;;;3.07;1.30;;;8.20;99.90;;;;;;5033920;28;20226;-56
2024/01/05 02:37:02;;;;;;;4.77;1.50;;;8.20;99.90;;;;;;5034583;28;20210;-56
2024/01/05 02:39:28;;;;;;;6.97;1.73;;;8.20;99.90;;;;;;5034383;28;20229;-56
2024/01/05 02:41:55;;;;;;;5.10;1.30;;;8.30;99.90;;;;;;5034309;28;20230;-56
2024/01/05 02:44:21;;;;;;;4.27;1.37;;;8.30;99.90;;;;;;5034284;28;20591;-57
2024/01/05 02:46:48;;;;;;;7.13;2.13;;;8.30;99.90;;;;;;5034529;28;20672;-56
2024/01/05 02:49:16;;;;;;;6.47;1.87;;;8.30;99.90;;;;;;5034890;28;20206;-57
2024/01/05 02:51:43;;;;;;;3.00;1.50;;;8.30;99.90;;;;;;5034978;28;20226;-56
2024/01/05 02:54:10;;;;;;;4.40;1.50;;;8.30;99.90;;;;;;5034278;28;20217;-58
2024/01/05 02:56:37;;;;;;;6.13;1.40;;;8.30;99.90;;;;;;5034917;28;20213;-56
2024/01/05 02:59:05;;;;;;;5.33;0.90;;;8.40;99.90;;;;;;5034954;28;20218;-56
2024/01/05 03:01:31;;;;;;;5.40;1.30;;;8.40;99.90;;;;;;5034717;28;20230;-56
2024/01/05 03:04:00;;;;;;;11.13;1.57;;;8.40;99.90;;;;;;5034567;28;20205;-57
2024/01/05 03:06:28;;;;;;;5.27;1.47;;;8.40;99.90;;;;;;5034675;28;20206;-56
2024/01/05 03:08:55;;;;;;;5.67;1.50;;;8.50;99.90;;;;;;5034524;28;20707;-56
2024/01/05 03:11:22;;;;;;;4.07;1.60;;;8.50;99.90;;;;;;5034136;28;20249;-56
2024/01/05 03:13:48;;;;;;;6.40;1.73;;;8.50;99.90;;;;;;5033781;28;20226;-56
2024/01/05 03:16:15;;;;;;;5.07;1.23;;;8.60;99.90;;;;;;5033574;28;20233;-60
2024/01/05 03:18:42;;;;;;;2.87;1.33;;;8.60;99.90;;;;;;5033817;28;20206;-56
2024/01/05 03:21:08;;;;;;;5.40;1.70;;;8.70;99.90;;;;;;5033457;28;20700;-58
2024/01/05 03:23:36;;;;;;;7.67;1.90;;;8.70;99.90;;;;;;5033475;28;20214;-56
2024/01/05 03:26:03;;;;;;;3.40;1.30;;;8.70;99.90;;;;;;5033552;28;20214;-56
2024/01/05 03:28:30;;;;;;;5.27;1.47;;;8.70;99.90;;;;;;5033216;28;20210;-56
2024/01/05 03:30:56;;;;;;;3.93;1.23;;;8.70;99.90;;;;;;5033508;28;20583;-57
2024/01/05 03:33:23;;;;;;;4.37;1.73;;;8.70;99.90;;;;;;5033154;28;20226;-55
2024/01/05 03:35:50;;;;;;;4.43;1.37;;;8.70;99.90;;;;;;5033249;28;20580;-55
2024/01/05 03:38:16;;;;;;;4.70;1.70;;;8.70;99.90;;;;;;5033247;28;20217;-58
2024/01/05 03:40:44;;;;;;;2.80;1.50;;;8.70;99.90;;;;;;5033814;28;20656;-56
2024/01/05 03:43:11;;;;;;;7.03;5.47;;;8.60;99.90;;;;;;5028123;22;20566;-63
2024/01/05 03:45:38;;;;;;;5.40;2.73;;;8.50;99.90;;;;;;5002093;28;20250;-63
2024/01/05 03:48:05;;;;;;;4.10;2.10;;;8.50;99.90;;;;;;5001840;28;20533;-63
2024/01/05 03:50:32;;;;;;;4.20;1.67;;;8.50;99.90;;;;;;5003735;28;20220;-63
2024/01/05 03:52:59;;;;;;;5.63;1.50;;;8.50;99.90;;;;;;5004602;28;20226;-63
2024/01/05 03:55:25;;;;;;;5.43;1.40;;;8.40;99.90;;;;;;5004162;28;20218;-63
2024/01/05 03:57:53;;;;;;;4.60;1.57;;;8.30;99.90;;;;;;5001511;28;20204;-63
2024/01/05 04:00:20;;;;;;;6.93;1.33;;;8.30;99.90;;;;;;5002104;28;20230;-63
2024/01/05 04:02:47;;;;;;;4.90;1.50;;;8.20;99.90;;;;;;5004059;28;20223;-63
2024/01/05 04:09:16;;;;;;;4.13;1.53;;;8.10;99.90;;;;;;5003117;28;20638;-63
2024/01/05 04:11:43;;;;;;;9.23;2.07;;;8.00;99.90;;;;;;4992858;28;20603;-63
2024/01/05 04:14:11;;;;;;;4.20;1.40;;;7.90;99.90;;;;;;5000959;28;20223;-63
2024/01/05 04:16:38;;;;;;;5.13;1.20;;;8.00;99.90;;;;;;5003978;28;20207;-63
2024/01/05 04:19:04;;;;;;;3.73;1.00;;;8.10;99.90;;;;;;5004909;28;20207;-63
2024/01/05 04:21:31;;;;;;;5.93;1.50;;;8.30;99.90;;;;;;5002291;28;20209;-63
2024/01/05 04:23:58;;;;;;;4.83;1.40;;;8.30;99.90;;;;;;5000786;28;20286;-63
2024/01/05 04:26:25;;;;;;;4.77;1.70;;;8.20;99.90;;;;;;5001708;28;20211;-63
2024/01/05 04:28:52;;;;;;;2.73;1.60;;;8.10;99.90;;;;;;5004345;28;20258;-63
2024/01/05 04:31:20;;;;;;;3.87;1.27;;;8.00;99.90;;;;;;5003990;28;20218;-63
2024/01/05 04:33:47;;;;;;;4.40;1.73;;;7.90;99.90;;;;;;4999521;28;20227;-63
2024/01/05 04:36:15;;;;;;;4.20;1.70;;;7.90;99.90;;;;;;5000622;28;20704;-63
2024/01/05 04:38:42;;;;;;;8.03;2.10;;;8.00;99.90;;;;;;5000380;28;20587;-63
2024/01/05 04:41:09;;;;;;;5.57;2.33;;;8.00;99.90;;;;;;5000456;28;20683;-63
2024/01/05 04:43:36;;;;;;;5.17;2.10;;;8.20;99.90;;;;;;5002807;28;20227;-63
2024/01/05 04:46:04;;;;;;;3.13;2.00;;;8.30;99.90;;;;;;5003684;28;20245;-63
2024/01/05 04:48:33;;;;;;;4.97;2.07;;;8.30;99.90;;;;;;5001994;28;20209;-62
2024/01/05 04:51:00;;;;;;;5.50;1.90;;;8.40;99.90;;;;;;5000271;28;20270;-62
2024/01/05 04:53:26;;;;;;;2.80;1.80;;;8.50;99.90;;;;;;5000900;28;20622;-62
2024/01/05 04:55:53;;;;;;;4.07;1.70;;;8.60;99.90;;;;;;5003461;28;20696;-62
2024/01/05 04:58:20;;;;;;;4.53;1.50;;;8.60;99.90;;;;;;5003497;28;20206;-62
2024/01/05 05:00:47;;;;;;;2.67;1.10;;;8.80;99.90;;;;;;5000205;28;20203;-62
2024/01/05 05:03:14;;;;;;;2.63;1.30;;;8.90;99.90;;;;;;4999876;28;20648;-61
2024/01/05 05:05:42;;;;;;;4.20;1.50;;;9.00;99.90;;;;;;5002971;28;20286;-63
2024/01/05 05:08:10;;;;;;;2.47;1.30;;;9.00;99.90;;;;;;5003423;28;20676;-62
2024/01/05 05:10:37;;;;;;;5.50;1.43;;;9.20;99.90;;;;;;5000695;28;20302;-61
2024/01/05 05:13:05;;;;;;;2.77;1.00;;;9.20;99.90;;;;;;4999774;28;20664;-62
2024/01/05 05:15:31;;;;;;;1.83;1.37;;;9.30;99.90;;;;;;5001625;28;20314;-63
2024/01/05 05:17:58;;;;;;;4.57;1.20;;;9.40;99.90;;;;;;5003556;28;20214;-62
2024/01/05 05:20:25;;;;;;;4.27;1.60;;;9.40;99.90;;;;;;5002341;28;20210;-62
2024/01/05 05:22:53;;;;;;;5.67;1.40;;;9.30;99.90;;;;;;5000037;28;20219;-62
2024/01/05 05:25:19;;;;;;;4.43;1.20;;;9.30;99.90;;;;;;4999965;28;20258;-62
2024/01/05 05:27:46;;;;;;;4.10;1.10;;;9.30;99.90;;;;;;5003342;28;20274;-62
2024/01/05 05:30:13;;;;;;;5.47;1.33;;;9.30;99.90;;;;;;5003339;28;20281;-62
2024/01/05 05:32:40;;;;;;;3.40;1.30;;;9.30;99.90;;;;;;5000153;28;20301;-62
2024/01/05 05:35:07;;;;;;;2.03;1.23;;;9.20;99.90;;;;;;4999917;28;20282;-62
2024/01/05 05:37:34;;;;;;;3.40;1.60;;;9.20;99.90;;;;;;5002062;28;20282;-62
2024/01/05 05:40:03;;;;;;;3.07;1.10;;;9.20;99.90;;;;;;5003354;28;20203;-62
2024/01/05 05:42:29;;;;;;;3.93;1.60;;;9.20;99.90;;;;;;5001483;28;20289;-64
2024/01/05 05:44:56;;;;;;;3.30;1.43;;;9.10;99.90;;;;;;5001464;28;20203;-62
2024/01/05 05:47:23;;;;;;;2.17;1.20;;;9.10;99.90;;;;;;5004264;28;20218;-63
2024/01/05 05:49:49;;;;;;;3.40;1.17;;;9.10;99.90;;;;;;5007387;28;20207;-63
2024/01/05 05:52:16;;;;;;;3.60;1.10;;;9.10;99.90;;;;;;5007025;28;20253;-63
2024/01/05 05:54:43;;;;;;;3.83;1.30;;;9.20;99.90;;;;;;5003715;28;20282;-62
2024/01/05 05:57:12;;;;;;;2.60;1.10;;;9.10;99.90;;;;;;5003773;28;20286;-62
2024/01/05 05:59:38;;;;;;;3.10;1.23;;;9.10;99.90;;;;;;5006081;28;20301;-61
2024/01/05 06:02:05;;;;;;;4.27;1.50;;;9.20;99.90;;;;;;5006278;28;20272;-63
2024/01/05 06:04:32;;;;;;;1.73;0.80;;;9.20;99.90;;;;;;5004651;28;20206;-63
2024/01/05 06:06:58;;;;;;;4.77;1.37;;;9.20;99.90;;;;;;5003062;28;20681;-62
2024/01/05 06:09:26;;;;;;;3.53;1.33;;;9.30;99.90;;;;;;5003721;28;20242;-63
2024/01/05 06:11:53;;;;;;;4.47;1.13;;;9.30;99.90;;;;;;5006599;28;20219;-62
2024/01/05 06:14:21;;;;;;;3.50;1.07;;;9.40;99.90;;;;;;5006438;28;20226;-63
2024/01/05 06:16:48;;;;;;;2.67;0.93;;;9.40;99.90;;;;;;5006578;28;20209;-62
2024/01/05 06:19:14;;;;;;;3.33;1.23;;;9.50;99.90;;;;;;5006745;28;20203;-62
2024/01/05 06:21:41;;;;;;;2.90;1.40;;;9.60;99.90;;;;;;5003604;28;20211;-62
2024/01/05 06:24:08;;;;;;;4.53;1.73;;;9.60;99.90;;;;;;5002795;28;20688;-62
2024/01/05 06:26:34;;;;;;;2.30;1.30;;;9.70;99.90;;;;;;5004972;28;20674;-63
2024/01/05 06:29:02;;;;;;;2.03;1.20;;;9.80;99.90;;;;;;5006507;28;20207;-63
2024/01/05 06:31:30;;;;;;;3.80;1.30;;;9.80;99.90;;;;;;5005317;28;20225;-63
2024/01/05 06:33:56;;;;;;;4.40;1.00;;;9.90;99.90;;;;;;5002536;28;20228;-62
2024/01/05 06:36:23;;;;;;;2.37;1.17;;;9.90;99.90;;;;;;5003370;28;20212;-62
2024/01/05 06:38:50;;;;;;;3.90;1.23;;;9.90;99.90;;;;;;5006746;28;20199;-62
2024/01/05 06:41:16;;;;;;;5.67;1.70;;;9.90;99.90;;;;;;5006273;28;20210;-63
2024/01/05 06:43:43;;;;;;;3.13;1.40;;;9.90;99.90;;;;;;5002936;28;20227;-62
2024/01/05 06:46:09;;;;;;;2.30;0.97;;;9.90;99.90;;;;;;5002742;28;20204;-62
2024/01/05 06:48:37;;;;;;;2.33;1.50;;;9.90;99.90;;;;;;5004893;28;20255;-62
2024/01/05 06:51:05;;;;;;;2.70;1.33;;;9.90;99.90;;;;;;5006219;28;20203;-62
2024/01/05 06:53:31;;;;;;;2.50;1.57;;;9.80;99.90;;;;;;5004302;28;20234;-62
2024/01/05 06:55:58;;;;;;;5.50;1.70;;;9.80;99.90;;;;;;5001847;28;20230;-62
2024/01/05 06:58:25;;;;;;;2.37;1.20;;;9.70;99.90;;;;;;5002831;28;20208;-62
2024/01/05 07:00:51;;;;;;;2.43;1.30;;;9.70;99.90;;;;;;5005881;28;20603;-62
2024/01/05 07:03:18;;;;;;;4.33;1.23;;;9.60;99.90;;;;;;5005662;28;20231;-62
2024/01/05 07:05:46;;;;;;;4.43;1.20;;;9.60;99.90;;;;;;5002735;28;20231;-62
2024/01/05 07:08:13;;;;;;;5.43;1.30;;;9.60;99.90;;;;;;5002474;28;20287;-62
2024/01/05 07:10:40;;;;;;;3.27;1.90;;;9.60;99.90;;;;;;5004749;28;20211;-59
2024/01/05 07:13:07;;;;;;;3.23;1.37;;;9.60;99.90;;;;;;5005463;28;20418;-62
2024/01/05 07:15:34;;;;;;;3.07;1.40;;;9.60;99.90;;;;;;5004088;28;20249;-61
2024/01/05 07:18:01;;;;;;;2.60;1.20;;;9.50;99.90;;;;;;5002366;28;20235;-62
2024/01/05 07:20:28;;;;;;;2.70;1.00;;;9.40;99.90;;;;;;5002972;28;20211;-62
2024/01/05 07:22:56;;;;;;;2.30;1.27;;;9.30;99.90;;;;;;5005278;28;20229;-61
2024/01/05 07:25:22;;;;;;;3.27;2.10;;;9.40;99.90;;;;;;5005144;28;20235;-61
2024/01/05 07:27:49;;;;;;;3.67;1.10;;;9.30;99.90;;;;;;5002099;28;20273;-61
2024/01/05 07:30:16;;;;;;;5.53;1.40;;;9.40;99.90;;;;;;5002009;28;20212;-62
2024/01/05 07:32:43;;;;;;;2.67;1.20;;;9.30;99.90;;;;;;5004475;28;20235;-61
2024/01/05 07:35:10;;;;;;;2.13;0.90;;;9.40;99.90;;;;;;5005271;28;20229;-62
2024/01/05 07:37:38;;;;;;;2.63;1.33;;;9.40;99.90;;;;;;5003094;28;20578;-59
2024/01/05 07:40:07;;;;;;;2.03;1.20;;;9.50;99.90;;;;;;5001802;28;20298;-62
2024/01/05 07:42:33;;;;;;;4.87;1.30;;;9.50;99.90;;;;;;5002692;28;20741;-62
2024/01/05 07:45:00;;;;;;;3.10;1.30;;;9.40;99.90;;;;;;5005062;28;20199;-62
2024/01/05 07:47:27;;;;;;;3.63;1.23;;;9.40;99.90;;;;;;5004414;28;20221;-62
2024/01/05 07:49:54;;;;;;;4.07;1.50;;;9.50;99.90;;;;;;5001669;28;20219;-62
2024/01/05 07:52:20;;;;;;;3.80;2.20;;;9.50;99.90;;;;;;5001167;28;20235;-62
2024/01/05 07:54:47;;;;;;;3.03;1.50;;;9.50;99.90;;;;;;5004609;28;20222;-62
2024/01/05 07:57:15;;;;;;;3.00;1.50;;;9.60;99.90;;;;;;5005100;28;20230;-61
2024/01/05 07:59:42;;;;;;;2.60;1.03;;;9.70;99.90;;;;;;5002652;28;20207;-62
2024/01/05 08:02:11;;;;;;;4.17;1.40;;;9.80;99.90;;;;;;5001339;28;20220;-63
2024/01/05 08:04:37;;;;;;;6.63;3.97;;;9.80;99.90;;;;;;5003323;28;20513;-61
2024/01/05 08:07:04;;;;;;;3.97;1.60;;;9.90;99.90;;;;;;5004735;28;20207;-61
2024/01/05 08:09:31;;;;;;;3.30;1.53;;;9.90;99.90;;;;;;5002931;28;20265;-60
2024/01/05 08:11:57;;;;;;;8.40;5.10;;;9.90;99.90;;;;;;5001426;28;20274;-61
2024/01/05 08:14:25;;;;;;;5.53;2.20;;;10.00;99.90;;;;;;5001150;28;20630;-63
2024/01/05 08:16:52;;;;;;;2.77;1.00;;;10.10;99.90;;;;;;5004736;28;20199;-64
2024/01/05 08:19:19;;;;;;;2.87;1.27;;;10.10;99.90;;;;;;5004819;28;20207;-61
2024/01/05 08:21:45;;;;;;;3.13;1.10;;;10.20;99.90;;;;;;4996261;28;20211;-60
2024/01/05 08:24:12;;;;;;;3.07;1.17;;;10.30;99.90;;;;;;5004554;28;20249;-60
2024/01/05 08:26:39;;;;;;;2.97;1.17;;;10.40;99.90;;;;;;5002667;28;20297;-61
2024/01/05 08:29:06;;;;;;;5.70;2.20;;;10.50;99.90;;;;;;5000988;28;20242;-61
2024/01/05 08:31:34;;;;;;;3.63;1.83;;;10.70;99.90;;;;;;5001746;28;20258;-61
2024/01/05 08:34:00;;;;;;;5.90;2.90;;;10.80;99.90;;;;;;5003998;28;20214;-61
2024/01/05 08:36:28;;;;;;;2.73;1.27;;;10.90;99.90;;;;;;5003884;28;20281;-61
2024/01/05 08:38:55;;;;;;;3.50;1.50;;;11.10;99.90;;;;;;5000813;28;20203;-61
2024/01/05 08:41:21;;;;;;;6.13;1.67;;;11.30;99.90;;;;;;5000775;28;20265;-61
2024/01/05 08:43:48;;;;;;;2.80;1.60;;;11.40;99.90;;;;;;5003210;28;20226;-61
2024/01/05 08:46:15;;;;;;;2.80;1.30;;;11.50;99.90;;;;;;5003853;28;20671;-60
2024/01/05 08:48:45;;;;;;;4.87;2.00;;;11.50;99.90;;;;;;5001565;28;20215;-60
2024/01/05 08:51:11;;;;;;;12.97;9.10;;;11.60;99.90;;;;;;5000562;28;20286;-61
2024/01/05 08:53:38;;;;;;;4.23;2.63;;;11.70;99.90;;;;;;5002282;28;20228;-61
2024/01/05 08:56:07;;;;;;;5.43;2.43;;;11.80;99.90;;;;;;5003639;28;20284;-60
2024/01/05 08:58:33;;;;;;;4.83;1.60;;;12.00;99.90;;;;;;5002785;28;20215;-60
2024/01/05 09:01:01;;;;;;;3.90;1.47;;;12.00;99.90;;;;;;5000240;28;20203;-60
2024/01/05 09:03:28;;;;;;;3.70;1.77;;;12.10;99.90;;;;;;5000110;28;20227;-60
2024/01/05 09:05:56;;;;;;;3.13;1.60;;;12.20;99.90;;;;;;5003628;28;20203;-61
2024/01/05 09:08:23;;;;;;;2.87;1.10;;;12.20;99.90;;;;;;5003687;28;20327;-61
2024/01/05 09:10:50;;;;;;;8.63;4.00;;;12.20;99.90;;;;;;5000317;28;20556;-61
2024/01/05 09:13:17;;;;;;;3.73;1.70;;;12.20;99.90;;;;;;5000167;28;20231;-60
2024/01/05 09:15:44;;;;;;;3.77;1.50;;;12.40;99.90;;;;;;5002568;28;20237;-62
2024/01/05 09:18:11;;;;;;;4.10;1.70;;;12.50;99.90;;;;;;5003515;28;20676;-60
2024/01/05 09:20:38;;;;;;;2.23;1.17;;;12.50;99.90;;;;;;5001488;28;20222;-61
2024/01/05 09:23:06;;;;;;;3.47;1.40;;;12.50;99.90;;;;;;4999699;28;20231;-59
2024/01/05 09:25:33;;;;;;;4.33;1.47;;;12.50;99.90;;;;;;5000701;28;20236;-60
2024/01/05 09:28:01;;;;;;;3.60;1.40;;;12.40;99.90;;;;;;5003255;28;20261;-60
2024/01/05 09:30:29;;;;;;;5.67;1.80;;;12.50;99.90;;;;;;5002900;28;20207;-61
2024/01/05 09:32:58;;;;;;;3.67;1.80;;;12.50;99.90;;;;;;4999831;28;20227;-60
2024/01/05 09:35:25;;;;;;;2.57;1.50;;;12.50;99.90;;;;;;4999776;28;20310;-59
2024/01/05 09:37:52;;;;;;;3.33;1.60;;;12.50;99.90;;;;;;4999997;28;20225;-61
2024/01/05 09:40:21;;;;;;;3.47;1.70;;;12.60;99.90;;;;;;4999976;28;20231;-59
2024/01/05 09:42:51;;;;;;;3.60;1.60;;;12.70;99.90;;;;;;5026589;22;20223;-60
2024/01/05 09:45:21;;;;;;;8.03;1.80;;;12.60;99.90;;;;;;5031274;28;20202;-61
2024/01/05 09:47:49;;;;;;;2.57;1.40;;;12.50;99.90;;;;;;5031536;28;20202;-59
2024/01/05 09:50:17;;;;;;;6.67;1.90;;;12.60;99.90;;;;;;5031261;28;20210;-59
2024/01/05 09:52:44;;;;;;;3.37;1.80;;;12.60;99.90;;;;;;5028473;28;20237;-60
2024/01/05 09:55:11;;;;;;;4.03;2.40;;;12.70;99.90;;;;;;5019335;28;20730;-60
2024/01/05 09:57:41;;;;;;;5.50;1.70;;;12.70;99.90;;;;;;5020869;28;20508;-60
2024/01/05 10:00:14;;;;;;;4.30;1.77;;;12.80;99.90;;;;;;5023065;28;20289;-59
2024/01/05 10:02:43;;;;;;;2.77;1.50;;;12.80;99.90;;;;;;5020779;28;20225;-59
2024/01/05 10:05:11;;;;;;;4.53;2.00;;;12.90;99.90;;;;;;5019297;28;20290;-59
2024/01/05 10:07:44;;;;;;;5.27;2.00;;;12.90;99.90;;;;;;5020805;28;20623;-60
2024/01/05 10:10:12;;;;;;;3.20;1.53;;;13.00;99.90;;;;;;5022695;28;20206;-60
2024/01/05 10:12:40;;;;;;;4.77;2.03;;;13.00;99.90;;;;;;5020962;28;20222;-61
2024/01/05 10:15:08;;;;;;;3.57;1.60;;;13.00;99.90;;;;;;5019500;28;20223;-60
2024/01/05 10:17:36;;;;;;;3.47;1.70;;;13.00;99.90;;;;;;5020386;28;20242;-61
2024/01/05 10:20:13;;;;;;;3.40;1.50;;;12.90;99.90;;;;;;5022597;28;20233;-60
2024/01/05 10:22:41;;;;;;;3.30;1.50;;;12.80;99.90;;;;;;5020821;28;20234;-66
2024/01/05 10:25:15;;;;;;;5.17;1.70;;;12.70;99.90;;;;;;5019147;28;20295;-57
2024/01/05 10:27:43;;;;;;;4.60;1.70;;;12.70;99.90;;;;;;5021089;28;20211;-57
2024/01/05 10:30:11;;;;;;;2.90;1.47;;;12.80;99.90;;;;;;5022567;28;20670;-57
2024/01/05 10:32:38;;;;;;;4.63;1.70;;;12.90;99.90;;;;;;5023141;28;20429;-58
2024/01/05 10:35:09;;;;;;;6.27;1.60;;;12.90;99.90;;;;;;5022531;28;20209;-57
2024/01/05 10:37:35;;;;;;;3.33;1.57;;;13.00;99.90;;;;;;5023910;28;20289;-58
2024/01/05 10:40:04;;;;;;;3.93;1.77;;;13.00;99.90;;;;;;5026188;28;20621;-57
2024/01/05 10:42:32;;;;;;;5.33;2.10;;;13.10;99.90;;;;;;5025382;28;20480;-57
2024/01/05 10:45:01;;;;;;;6.53;2.27;;;13.20;99.90;;;;;;5022728;28;20207;-59
2024/01/05 10:47:30;;;;;;;3.37;1.77;;;13.30;99.90;;;;;;5022527;28;20238;-57
2024/01/05 10:49:57;;;;;;;3.43;1.63;;;13.40;99.90;;;;;;5026138;28;20584;-56
2024/01/05 10:52:24;;;;;;;8.63;3.63;;;13.50;99.90;;;;;;5025591;28;20723;-58
2024/01/05 10:54:52;;;;;;;3.67;2.20;;;13.60;99.90;;;;;;5022773;28;20202;-58
2024/01/05 10:57:21;;;;;;;7.17;3.43;;;13.70;99.90;;;;;;5022196;28;20223;-58
2024/01/05 10:59:48;;;;;;;9.97;5.90;;;13.70;99.90;;;;;;5017074;28;20218;-59
2024/01/05 11:02:21;;;;;;;4.57;2.20;;;13.80;99.90;;;;;;5025268;28;20230;-57
2024/01/05 11:04:52;;;;;;;5.20;1.70;;;13.90;99.90;;;;;;5023153;28;20288;-57
2024/01/05 11:07:19;;;;;;;4.23;1.90;;;13.90;99.90;;;;;;5029194;28;20305;-57
2024/01/05 11:09:57;;;;;;;2.13;1.40;;;14.00;99.90;;;;;;5023276;28;20595;-57
2024/01/05 11:12:37;;;;;;;5.90;1.70;;;14.10;99.90;;;;;;5021866;28;20644;-58
2024/01/05 11:15:18;;;;;;;6.13;2.23;;;14.20;99.90;;;;;;5018667;28;20605;-59
2024/01/05 11:18:20;;;;;;;5.97;2.13;;;14.20;99.90;;;;;;5023005;28;20210;-65
2024/01/05 11:21:02;;;;;;;4.17;2.17;;;14.20;99.90;;;;;;5023829;28;20210;-59
2024/01/05 11:23:30;;;;;;;3.20;2.03;;;14.20;99.90;;;;;;5025143;28;20316;-61
2024/01/05 11:25:57;;;;;;;4.40;1.93;;;14.30;99.90;;;;;;5014327;28;20249;-60
2024/01/05 11:28:33;;;;;;;3.47;1.43;;;14.40;99.90;;;;;;5022094;28;20222;-58
2024/01/05 11:31:00;;;;;;;2.83;1.57;;;14.50;99.90;;;;;;5014943;28;20289;-58
2024/01/05 11:33:44;;;;;;;3.77;2.00;;;14.50;99.90;;;;;;5021646;28;20223;-56
2024/01/05 11:36:12;;;;;;;4.40;1.90;;;14.60;99.90;;;;;;5015842;28;20302;-56
2024/01/05 11:38:43;;;;;;;4.20;1.87;;;14.60;99.90;;;;;;5022842;28;20207;-57
2024/01/05 11:41:17;;;;;;;3.13;1.73;;;14.60;99.90;;;;;;5019683;28;20293;-59
2024/01/05 11:43:43;;;;;;;4.10;1.63;;;14.60;99.90;;;;;;5022782;28;20242;-57
2024/01/05 11:46:10;;;;;;;4.83;1.80;;;14.60;99.90;;;;;;5025164;28;20195;-58
2024/01/05 11:48:56;;;;;;;3.93;1.43;;;14.60;99.90;;;;;;5023810;28;20702;-57
2024/01/05 11:51:22;;;;;;;2.90;1.17;;;14.60;99.90;;;;;;5021767;28;20668;-57
2024/01/05 11:53:49;;;;;;;3.57;1.90;;;14.60;99.90;;;;;;5029218;28;20233;-57
2024/01/05 11:56:20;;;;;;;2.97;1.70;;;14.60;99.90;;;;;;5021189;28;20227;-56
2024/01/05 11:58:47;;;;;;;4.50;1.90;;;14.60;99.90;;;;;;5023589;28;20202;-56
2024/01/05 12:01:16;;;;;;;8.10;5.10;;;14.60;99.90;;;;;;5024710;28;20310;-58
2024/01/05 12:03:44;;;;;;;3.47;1.80;;;14.50;99.90;;;;;;5024320;28;20265;-58
2024/01/05 12:06:14;;;;;;;3.90;1.90;;;14.30;99.90;;;;;;5024665;28;20198;-58
2024/01/05 12:08:41;;;;;;;3.77;1.83;;;14.20;99.90;;;;;;5024604;28;20261;-58
2024/01/05 12:11:09;;;;;;;5.37;1.77;;;14.20;99.90;;;;;;5023967;28;20679;-56
2024/01/05 12:13:37;;;;;;;3.30;1.60;;;14.20;99.90;;;;;;5023330;28;20226;-56
2024/01/05 12:16:05;;;;;;;5.67;2.00;;;14.20;99.90;;;;;;5020857;28;20306;-56
2024/01/05 12:18:33;;;;;;;5.30;1.87;;;14.20;99.90;;;;;;5028985;28;20680;-57
2024/01/05 12:21:01;;;;;;;7.50;1.87;;;14.20;99.90;;;;;;5021058;28;20208;-57
2024/01/05 12:23:31;;;;;;;6.33;1.70;;;14.20;99.90;;;;;;5020750;28;20288;-57
2024/01/05 12:25:59;;;;;;;5.77;2.10;;;14.20;99.90;;;;;;5020698;28;20226;-58
2024/01/05 12:28:28;;;;;;;5.53;1.80;;;14.20;99.90;;;;;;5020837;28;20289;-57
2024/01/05 12:30:55;;;;;;;4.57;1.47;;;14.20;99.90;;;;;;5023982;28;20241;-56
2024/01/05 12:33:23;;;;;;;3.53;1.47;;;14.20;99.90;;;;;;5025075;28;20704;-57
2024/01/05 12:35:52;;;;;;;3.73;2.00;;;14.20;99.90;;;;;;5023273;28;20214;-57
2024/01/05 12:38:23;;;;;;;4.70;2.17;;;14.10;99.90;;;;;;5024442;28;20206;-57
2024/01/05 12:40:52;;;;;;;5.33;2.10;;;14.10;99.90;;;;;;5021761;28;20212;-57
2024/01/05 12:43:19;;;;;;;2.93;1.63;;;14.10;99.90;;;;;;5026755;28;20316;-57
2024/01/05 12:45:49;;;;;;;3.83;2.10;;;14.10;99.90;;;;;;5021792;28;20664;-57
2024/01/05 12:48:17;;;;;;;4.50;2.00;;;14.10;99.90;;;;;;5020628;28;20221;-57
2024/01/05 12:50:45;;;;;;;6.77;2.40;;;14.10;99.90;;;;;;5022335;28;20210;-58
2024/01/05 12:53:20;;;;;;;6.73;2.60;;;14.20;99.90;;;;;;5023985;28;20276;-57
2024/01/05 12:55:46;;;;;;;23.33;14.10;;;14.10;99.90;;;;;;5021226;28;20210;-57
2024/01/05 12:58:14;;;;;;;7.27;2.60;;;14.00;99.90;;;;;;5020436;28;20202;-58
2024/01/05 13:00:44;;;;;;;3.27;1.77;;;14.00;99.90;;;;;;5021469;28;20218;-58
2024/01/05 13:03:15;;;;;;;3.43;1.93;;;14.00;99.90;;;;;;5023595;28;20640;-57
2024/01/05 13:05:42;;;;;;;8.47;2.03;;;14.10;99.90;;;;;;5022378;28;20214;-56
2024/01/05 13:08:09;;;;;;;3.50;1.90;;;14.10;99.90;;;;;;5020223;28;20203;-56
2024/01/05 13:10:36;;;;;;;6.73;2.53;;;14.20;99.90;;;;;;5020419;28;20210;-57